Time;durP1;ratioP1;P1;durP2;ratioP2;P2;SDS_P1;SDS_P2;PMS_P1;PMS_P2;Temp;Humidity;BMP_temperature;BMP_pressure;BME280_temperature;BME280_humidity;BME280_pressure;Samples;Min_cycle;Max_cycle;Signal;HPM_P1;HPM_P2
2023/08/16 00:02:26;;;;;;;4.27;3.97;;;24.20;99.90;;;;;;4925205;28;20958;-81
2023/08/16 00:04:53;;;;;;;5.37;3.77;;;24.20;99.90;;;;;;4925815;28;20468;-81
2023/08/16 00:07:19;;;;;;;4.50;4.10;;;24.20;99.90;;;;;;4928450;28;20469;-81
2023/08/16 00:09:46;;;;;;;4.27;3.90;;;24.20;99.90;;;;;;4929979;28;20479;-81
2023/08/16 00:12:14;;;;;;;4.17;3.70;;;24.20;99.90;;;;;;4929097;29;21141;-81
2023/08/16 00:14:41;;;;;;;4.30;3.70;;;24.20;99.90;;;;;;4928967;28;20649;-82
2023/08/16 00:17:08;;;;;;;4.70;3.40;;;24.20;99.90;;;;;;4921538;28;20473;-81
2023/08/16 00:19:34;;;;;;;5.37;4.87;;;24.20;99.90;;;;;;4929891;28;20461;-81
2023/08/16 00:22:01;;;;;;;4.10;3.77;;;24.20;99.90;;;;;;4928568;28;20917;-81
2023/08/16 00:24:28;;;;;;;4.23;3.93;;;24.20;99.90;;;;;;4931176;28;20472;-82
2023/08/16 00:26:55;;;;;;;4.00;3.70;;;24.20;99.90;;;;;;4934565;28;20469;-82
2023/08/16 00:29:23;;;;;;;3.97;3.67;;;24.20;99.90;;;;;;4932184;28;20464;-83
2023/08/16 00:31:50;;;;;;;4.03;3.73;;;24.20;99.90;;;;;;4931981;28;20884;-82
2023/08/16 00:34:17;;;;;;;4.87;4.47;;;24.20;99.90;;;;;;4930870;28;21444;-82
2023/08/16 00:36:43;;;;;;;4.63;4.20;;;24.20;99.90;;;;;;4929026;28;20947;-82
2023/08/16 00:39:10;;;;;;;3.70;3.43;;;24.10;99.90;;;;;;4927785;28;20468;-82
2023/08/16 00:41:37;;;;;;;4.90;3.70;;;24.20;99.90;;;;;;4927948;28;20476;-82
2023/08/16 00:44:04;;;;;;;3.90;3.60;;;24.10;99.90;;;;;;4926599;28;20491;-82
2023/08/16 00:46:32;;;;;;;4.30;3.90;;;24.20;99.90;;;;;;4925629;28;20466;-81
2023/08/16 00:48:59;;;;;;;5.20;4.80;;;24.10;99.90;;;;;;4929292;28;20475;-81
2023/08/16 00:51:26;;;;;;;4.93;4.53;;;24.20;99.90;;;;;;4930494;29;20564;-81
2023/08/16 00:53:54;;;;;;;3.80;3.50;;;24.10;99.90;;;;;;4930329;28;20492;-81
2023/08/16 00:56:24;;;;;;;3.87;3.57;;;24.10;99.90;;;;;;4927320;28;20475;-81
2023/08/16 00:58:51;;;;;;;6.53;4.40;;;24.20;99.90;;;;;;4929692;28;20800;-81
2023/08/16 01:01:17;;;;;;;4.93;4.43;;;24.10;99.90;;;;;;4927631;29;20973;-82
2023/08/16 01:03:46;;;;;;;3.70;3.40;;;24.10;99.90;;;;;;4929233;28;20465;-81
2023/08/16 01:06:13;;;;;;;3.53;3.33;;;24.10;99.90;;;;;;4930123;28;21112;-81
2023/08/16 01:08:41;;;;;;;4.00;3.70;;;24.10;99.90;;;;;;4930141;28;20476;-81
2023/08/16 01:11:13;;;;;;;3.70;3.40;;;24.10;99.90;;;;;;4931337;28;20994;-82
2023/08/16 01:13:48;;;;;;;5.63;4.00;;;24.10;99.90;;;;;;4926841;29;20819;-81
2023/08/16 01:16:16;;;;;;;4.17;3.87;;;24.10;99.90;;;;;;4922312;28;20471;-82
2023/08/16 01:18:44;;;;;;;4.20;3.90;;;24.10;99.90;;;;;;4928967;28;20474;-82
2023/08/16 01:21:14;;;;;;;4.00;3.70;;;24.10;99.90;;;;;;4926873;28;20470;-82
2023/08/16 01:23:50;;;;;;;5.30;4.27;;;24.10;99.90;;;;;;4929577;28;20929;-82
2023/08/16 01:26:31;;;;;;;4.07;3.77;;;24.10;99.90;;;;;;4930530;28;20575;-82
2023/08/16 01:28:59;;;;;;;6.87;4.47;;;24.10;99.90;;;;;;4927203;28;20468;-82
2023/08/16 01:31:26;;;;;;;4.20;3.80;;;24.10;99.90;;;;;;4926907;28;20473;-81
2023/08/16 01:33:53;;;;;;;3.87;3.57;;;24.10;99.90;;;;;;4929432;28;20488;-82
2023/08/16 01:36:20;;;;;;;4.60;4.20;;;24.10;99.90;;;;;;4923237;28;20850;-82
2023/08/16 01:38:47;;;;;;;5.10;4.73;;;24.10;99.90;;;;;;4927533;28;20476;-82
2023/08/16 01:41:21;;;;;;;3.90;3.60;;;24.10;99.90;;;;;;4928928;28;20468;-82
2023/08/16 01:43:50;;;;;;;4.00;3.70;;;24.10;99.90;;;;;;4930025;28;20525;-82
2023/08/16 01:46:17;;;;;;;4.87;4.33;;;24.10;99.90;;;;;;4926332;28;20963;-82
2023/08/16 01:48:45;;;;;;;5.83;4.50;;;24.10;99.90;;;;;;4926605;28;20490;-81
2023/08/16 01:51:12;;;;;;;3.93;3.63;;;24.10;99.90;;;;;;4927434;28;20477;-82
2023/08/16 01:53:38;;;;;;;4.20;3.90;;;24.10;99.90;;;;;;4927910;28;20928;-82
2023/08/16 01:56:05;;;;;;;3.93;3.53;;;24.10;99.90;;;;;;4929634;28;20470;-83
2023/08/16 01:58:32;;;;;;;5.13;4.80;;;24.10;99.90;;;;;;4927742;28;20469;-83
2023/08/16 02:01:00;;;;;;;4.53;4.23;;;24.00;99.90;;;;;;4927942;29;20469;-83
2023/08/16 02:03:27;;;;;;;5.57;5.07;;;24.00;99.90;;;;;;4928396;28;20555;-82
2023/08/16 02:05:54;;;;;;;4.30;3.80;;;24.00;99.90;;;;;;4928187;28;21728;-83
2023/08/16 02:08:20;;;;;;;3.90;3.60;;;24.00;99.90;;;;;;4928550;28;20466;-83
2023/08/16 02:10:47;;;;;;;3.60;3.40;;;24.10;99.90;;;;;;4928213;29;20476;-83
2023/08/16 02:13:14;;;;;;;4.30;4.00;;;24.00;99.90;;;;;;4928281;28;20854;-83
2023/08/16 02:15:41;;;;;;;3.70;3.40;;;24.00;99.90;;;;;;4928038;28;20500;-83
2023/08/16 02:18:10;;;;;;;5.80;4.33;;;24.00;99.90;;;;;;4927310;28;20499;-82
2023/08/16 02:20:38;;;;;;;4.00;3.77;;;24.00;99.90;;;;;;4926130;28;21055;-81
2023/08/16 02:23:05;;;;;;;3.60;3.40;;;24.10;99.90;;;;;;4925936;28;21765;-80
2023/08/16 02:25:32;;;;;;;4.63;4.23;;;24.00;99.90;;;;;;4928259;29;20476;-80
2023/08/16 02:27:59;;;;;;;4.83;4.40;;;24.00;99.90;;;;;;4928092;28;20473;-81
2023/08/16 02:30:26;;;;;;;4.60;4.20;;;24.00;99.90;;;;;;4926738;28;20468;-81
2023/08/16 02:32:54;;;;;;;4.30;3.87;;;24.00;99.90;;;;;;4928885;28;21000;-81
2023/08/16 02:35:22;;;;;;;4.27;3.87;;;24.00;99.90;;;;;;4925780;28;20498;-81
2023/08/16 02:37:49;;;;;;;5.13;4.73;;;24.00;99.90;;;;;;4929710;29;21090;-81
2023/08/16 02:40:16;;;;;;;4.37;4.07;;;24.00;99.90;;;;;;4926668;28;20461;-83
2023/08/16 02:42:43;;;;;;;4.20;3.90;;;24.00;99.90;;;;;;4931584;29;20457;-80
2023/08/16 02:45:10;;;;;;;4.20;3.90;;;24.00;99.90;;;;;;4926888;29;20471;-80
2023/08/16 02:47:37;;;;;;;3.90;3.60;;;24.00;99.90;;;;;;4931509;29;20452;-80
2023/08/16 02:50:05;;;;;;;4.40;4.03;;;24.00;99.90;;;;;;4930061;29;20476;-79
2023/08/16 02:52:33;;;;;;;4.03;3.70;;;24.00;99.90;;;;;;4929199;28;20836;-79
2023/08/16 02:55:00;;;;;;;3.97;3.57;;;24.00;99.90;;;;;;4929275;28;20493;-79
2023/08/16 02:57:27;;;;;;;4.37;4.07;;;24.00;99.90;;;;;;4930569;29;20445;-80
2023/08/16 02:59:54;;;;;;;4.33;4.03;;;24.00;99.90;;;;;;4928600;29;21415;-80
2023/08/16 03:02:21;;;;;;;3.80;3.50;;;24.00;99.90;;;;;;4928516;29;20997;-80
2023/08/16 03:04:48;;;;;;;3.23;3.00;;;24.00;99.90;;;;;;4927602;28;20502;-80
2023/08/16 03:07:15;;;;;;;4.53;4.13;;;24.00;99.90;;;;;;4930030;28;20814;-79
2023/08/16 03:09:43;;;;;;;4.50;4.20;;;24.00;99.90;;;;;;4929588;28;20753;-80
2023/08/16 03:12:10;;;;;;;4.50;4.10;;;24.00;99.90;;;;;;4929753;28;20459;-80
2023/08/16 03:14:36;;;;;;;4.40;4.00;;;24.00;99.90;;;;;;4927785;29;20509;-80
2023/08/16 03:17:04;;;;;;;4.23;3.93;;;24.00;99.90;;;;;;4925523;28;20828;-80
2023/08/16 03:19:31;;;;;;;4.00;3.70;;;24.00;99.90;;;;;;4928584;28;20469;-80
2023/08/16 03:21:58;;;;;;;3.63;3.43;;;24.00;99.90;;;;;;4925005;28;20461;-80
2023/08/16 03:24:26;;;;;;;3.90;3.60;;;24.00;99.90;;;;;;4928310;28;21001;-80
2023/08/16 03:26:54;;;;;;;3.83;3.63;;;24.00;99.90;;;;;;4928922;28;20676;-80
2023/08/16 03:29:21;;;;;;;3.77;3.47;;;24.00;99.90;;;;;;4928233;28;21257;-80
2023/08/16 03:31:48;;;;;;;3.47;3.27;;;24.00;99.90;;;;;;4930178;28;20474;-80
2023/08/16 03:34:15;;;;;;;3.90;3.60;;;24.00;99.90;;;;;;4927395;28;20470;-80
2023/08/16 03:36:42;;;;;;;3.90;3.60;;;24.00;99.90;;;;;;4929087;28;20861;-80
2023/08/16 03:39:09;;;;;;;4.37;4.00;;;24.00;99.90;;;;;;4927151;28;20461;-80
2023/08/16 03:41:37;;;;;;;5.03;4.40;;;24.00;99.90;;;;;;4928332;28;20467;-79
2023/08/16 03:44:07;;;;;;;4.40;4.10;;;24.00;99.90;;;;;;4927882;28;20551;-80
2023/08/16 03:46:34;;;;;;;3.83;3.53;;;24.00;99.90;;;;;;4929477;28;20462;-79
2023/08/16 03:49:01;;;;;;;4.80;4.40;;;24.00;99.90;;;;;;4933446;28;20942;-80
2023/08/16 03:51:28;;;;;;;4.40;4.10;;;24.00;99.90;;;;;;4931592;28;20465;-79
2023/08/16 03:53:55;;;;;;;4.87;4.43;;;24.00;99.90;;;;;;4929739;28;20469;-80
2023/08/16 03:56:22;;;;;;;4.73;4.27;;;23.90;99.90;;;;;;4930899;28;20488;-79
2023/08/16 03:58:49;;;;;;;4.57;4.27;;;23.90;99.90;;;;;;4933535;29;20977;-80
2023/08/16 04:01:17;;;;;;;4.10;3.70;;;23.90;99.90;;;;;;4929973;29;20469;-80
2023/08/16 04:03:44;;;;;;;4.67;4.30;;;23.90;99.90;;;;;;4931676;29;20712;-79
2023/08/16 04:06:11;;;;;;;4.90;4.50;;;23.90;99.90;;;;;;4932011;29;20979;-80
2023/08/16 04:08:38;;;;;;;4.07;3.77;;;24.00;99.90;;;;;;4932964;29;20477;-80
2023/08/16 04:11:05;;;;;;;5.10;4.70;;;23.90;99.90;;;;;;4931070;29;20471;-80
2023/08/16 04:13:33;;;;;;;4.60;4.30;;;23.90;99.90;;;;;;4930236;28;20462;-80
2023/08/16 04:15:59;;;;;;;4.70;4.30;;;23.90;99.90;;;;;;4928773;28;20938;-81
2023/08/16 04:18:30;;;;;;;5.03;4.63;;;24.00;99.90;;;;;;4933660;29;20450;-80
2023/08/16 04:20:57;;;;;;;4.60;4.20;;;24.00;99.90;;;;;;4933639;29;20465;-80
2023/08/16 04:23:24;;;;;;;4.40;4.00;;;23.90;99.90;;;;;;4931750;29;20469;-80
2023/08/16 04:25:51;;;;;;;5.10;4.70;;;23.90;99.90;;;;;;4933819;28;20808;-80
2023/08/16 04:28:18;;;;;;;4.27;3.97;;;23.90;99.90;;;;;;4935235;29;20822;-80
2023/08/16 04:30:45;;;;;;;3.93;3.63;;;23.90;99.90;;;;;;4931317;28;20468;-80
2023/08/16 04:33:12;;;;;;;4.60;4.20;;;23.90;99.90;;;;;;4931772;28;21057;-80
2023/08/16 04:35:41;;;;;;;4.70;4.30;;;23.90;99.90;;;;;;4926654;28;20483;-80
2023/08/16 04:38:07;;;;;;;3.93;3.53;;;23.90;99.90;;;;;;4929547;28;20484;-80
2023/08/16 04:40:35;;;;;;;4.43;4.03;;;23.90;99.90;;;;;;4929671;28;20735;-80
2023/08/16 04:43:01;;;;;;;4.20;3.90;;;23.90;99.90;;;;;;4932074;28;20478;-80
2023/08/16 04:45:28;;;;;;;4.60;4.20;;;23.90;99.90;;;;;;4930489;28;20473;-80
2023/08/16 04:47:55;;;;;;;4.47;4.07;;;23.90;99.90;;;;;;4933242;28;20472;-80
2023/08/16 04:50:21;;;;;;;4.03;3.73;;;23.90;99.90;;;;;;4931793;28;20477;-80
2023/08/16 04:52:49;;;;;;;4.33;4.00;;;23.90;99.90;;;;;;4930537;28;20481;-80
2023/08/16 04:55:16;;;;;;;3.87;3.57;;;23.90;99.90;;;;;;4926684;28;20488;-80
2023/08/16 04:57:44;;;;;;;4.80;4.43;;;23.90;99.90;;;;;;4931842;28;20474;-80
2023/08/16 05:00:12;;;;;;;4.20;3.90;;;23.90;99.90;;;;;;4927627;28;20997;-80
2023/08/16 05:02:39;;;;;;;4.20;3.90;;;23.90;99.90;;;;;;4929734;28;20469;-80
2023/08/16 05:05:06;;;;;;;4.60;4.20;;;23.90;99.90;;;;;;4926947;28;20464;-80
2023/08/16 05:07:33;;;;;;;4.30;4.00;;;23.90;99.90;;;;;;4929650;28;20499;-80
2023/08/16 05:10:01;;;;;;;4.00;3.63;;;23.90;99.90;;;;;;4930706;29;20469;-81
2023/08/16 05:12:28;;;;;;;3.90;3.60;;;23.90;99.90;;;;;;4929724;28;20464;-80
2023/08/16 05:14:55;;;;;;;4.70;4.40;;;23.90;99.90;;;;;;4929144;29;20511;-80
2023/08/16 05:17:22;;;;;;;6.10;3.67;;;23.90;99.90;;;;;;4929560;28;20464;-80
2023/08/16 05:19:49;;;;;;;4.40;4.10;;;23.90;99.90;;;;;;4929918;29;20474;-79
2023/08/16 05:22:15;;;;;;;4.27;3.97;;;23.90;99.90;;;;;;4931364;28;20467;-80
2023/08/16 05:24:42;;;;;;;3.97;3.67;;;23.90;99.90;;;;;;4930192;28;20470;-80
2023/08/16 05:27:12;;;;;;;4.63;4.33;;;23.90;99.90;;;;;;4932579;28;20970;-80
2023/08/16 05:29:39;;;;;;;4.57;4.17;;;23.90;99.90;;;;;;4933511;28;20559;-79
2023/08/16 05:32:06;;;;;;;4.37;3.97;;;23.90;99.90;;;;;;4928873;29;20477;-79
2023/08/16 05:34:33;;;;;;;3.57;3.37;;;23.90;99.90;;;;;;4929120;28;20465;-79
2023/08/16 05:36:59;;;;;;;3.83;3.53;;;23.90;99.90;;;;;;4930226;28;20505;-79
2023/08/16 05:39:26;;;;;;;4.50;4.10;;;23.90;99.90;;;;;;4930891;29;20469;-79
2023/08/16 05:41:53;;;;;;;3.90;3.60;;;23.90;99.90;;;;;;4930842;29;20458;-79
2023/08/16 05:44:21;;;;;;;3.43;3.23;;;23.90;99.90;;;;;;4927607;29;20463;-80
2023/08/16 05:46:48;;;;;;;4.57;4.27;;;23.90;99.90;;;;;;4927647;29;20489;-80
2023/08/16 05:49:15;;;;;;;4.17;3.87;;;23.90;99.90;;;;;;4928685;29;20481;-80
2023/08/16 05:51:41;;;;;;;4.20;3.90;;;23.90;99.90;;;;;;4926625;29;20997;-80
2023/08/16 05:54:08;;;;;;;3.80;3.50;;;23.90;99.90;;;;;;4927695;29;20465;-80
2023/08/16 05:56:35;;;;;;;3.87;3.57;;;23.90;99.90;;;;;;4928637;29;20490;-80
2023/08/16 05:59:02;;;;;;;4.07;3.77;;;23.90;99.90;;;;;;4927039;28;20477;-80
2023/08/16 06:01:30;;;;;;;4.83;4.43;;;23.90;99.90;;;;;;4921156;28;20462;-80
2023/08/16 06:03:56;;;;;;;4.23;3.93;;;23.90;99.90;;;;;;4924957;28;20473;-80
2023/08/16 06:06:23;;;;;;;4.70;4.30;;;23.90;99.90;;;;;;4932870;29;21168;-80
2023/08/16 06:08:50;;;;;;;5.30;4.87;;;23.90;99.90;;;;;;4931289;28;20462;-80
2023/08/16 06:11:17;;;;;;;5.30;4.80;;;23.90;99.90;;;;;;4925133;28;20924;-81
2023/08/16 06:13:43;;;;;;;4.40;4.10;;;23.90;99.90;;;;;;4925577;28;20476;-81
2023/08/16 06:16:10;;;;;;;4.80;4.50;;;23.90;99.90;;;;;;4922238;28;20488;-81
2023/08/16 06:18:38;;;;;;;5.50;4.80;;;23.90;99.90;;;;;;4925852;29;20858;-81
2023/08/16 06:21:05;;;;;;;4.47;4.00;;;23.90;99.90;;;;;;4927063;28;20472;-81
2023/08/16 06:23:32;;;;;;;5.23;4.83;;;23.90;99.90;;;;;;4926820;28;20470;-81
2023/08/16 06:25:59;;;;;;;4.27;3.90;;;23.80;99.90;;;;;;4926097;29;20778;-80
2023/08/16 06:28:25;;;;;;;4.20;3.80;;;23.90;99.90;;;;;;4926303;29;20470;-80
2023/08/16 06:30:52;;;;;;;7.13;5.40;;;23.90;99.90;;;;;;4924538;28;20785;-80
2023/08/16 06:33:22;;;;;;;3.93;3.63;;;23.90;99.90;;;;;;4927070;28;20982;-80
2023/08/16 06:35:51;;;;;;;6.63;5.23;;;23.90;99.90;;;;;;4928763;28;20512;-80
2023/08/16 06:38:18;;;;;;;4.10;3.80;;;23.90;99.90;;;;;;4924695;28;20461;-80
2023/08/16 06:40:45;;;;;;;5.50;3.80;;;23.90;99.90;;;;;;4926892;28;20847;-80
2023/08/16 06:43:12;;;;;;;4.30;4.00;;;23.90;99.90;;;;;;4927492;29;21411;-80
2023/08/16 06:45:39;;;;;;;5.63;4.63;;;23.90;99.90;;;;;;4927558;28;21146;-80
2023/08/16 06:48:07;;;;;;;4.23;3.83;;;23.90;99.90;;;;;;4929214;29;20473;-80
2023/08/16 06:50:34;;;;;;;4.00;3.70;;;23.90;99.90;;;;;;4927945;29;20525;-80
2023/08/16 06:53:02;;;;;;;4.77;3.70;;;23.90;99.90;;;;;;4928441;29;20480;-80
2023/08/16 06:55:29;;;;;;;4.37;3.97;;;23.90;99.90;;;;;;4927264;29;21523;-80
2023/08/16 06:57:58;;;;;;;4.80;4.40;;;23.90;99.90;;;;;;4927307;29;20470;-80
2023/08/16 07:00:24;;;;;;;5.23;4.60;;;23.80;99.90;;;;;;4925694;28;20954;-80
2023/08/16 07:02:51;;;;;;;6.07;5.00;;;23.80;99.90;;;;;;4929342;29;20481;-80
2023/08/16 07:05:18;;;;;;;4.70;4.30;;;23.90;99.90;;;;;;4927996;28;20562;-80
2023/08/16 07:07:45;;;;;;;4.00;3.63;;;23.90;99.90;;;;;;4927682;28;20459;-80
2023/08/16 07:10:13;;;;;;;5.27;4.30;;;23.90;99.90;;;;;;4927249;28;20514;-80
2023/08/16 07:12:40;;;;;;;4.53;3.97;;;23.80;99.90;;;;;;4935056;28;20459;-80
2023/08/16 07:15:08;;;;;;;4.00;3.70;;;23.80;99.90;;;;;;4931639;29;20535;-80
2023/08/16 07:17:34;;;;;;;4.40;4.00;;;23.80;99.90;;;;;;4917019;28;22276;-79
2023/08/16 07:20:01;;;;;;;5.70;4.00;;;23.90;99.90;;;;;;4928051;28;20579;-80
2023/08/16 07:22:28;;;;;;;6.97;5.13;;;23.80;99.90;;;;;;4928774;28;20460;-80
2023/08/16 07:24:55;;;;;;;4.60;4.17;;;23.80;99.90;;;;;;4928564;28;20461;-80
2023/08/16 07:27:24;;;;;;;4.00;3.53;;;23.80;99.90;;;;;;4926329;29;20476;-80
2023/08/16 07:29:51;;;;;;;4.90;4.47;;;23.80;99.90;;;;;;4930735;28;20718;-80
2023/08/16 07:32:17;;;;;;;5.80;4.90;;;23.80;99.90;;;;;;4930761;29;20478;-79
2023/08/16 07:34:44;;;;;;;3.90;3.60;;;23.80;99.90;;;;;;4931537;28;21004;-80
2023/08/16 07:37:13;;;;;;;5.43;4.20;;;23.80;99.90;;;;;;4933257;29;20493;-79
2023/08/16 07:39:40;;;;;;;4.07;3.77;;;23.80;99.90;;;;;;4924412;28;20472;-80
2023/08/16 07:42:07;;;;;;;4.87;4.47;;;23.80;99.90;;;;;;4927208;28;20513;-83
2023/08/16 07:44:36;;;;;;;4.50;4.10;;;23.80;99.90;;;;;;4929055;28;20483;-83
2023/08/16 07:47:02;;;;;;;6.70;4.83;;;23.80;99.90;;;;;;4923832;28;20835;-83
2023/08/16 07:49:30;;;;;;;6.00;5.50;;;23.80;99.90;;;;;;4925253;28;20478;-83
2023/08/16 07:51:57;;;;;;;6.07;5.13;;;23.80;99.90;;;;;;4930296;28;20503;-83
2023/08/16 07:54:24;;;;;;;5.40;4.90;;;23.80;99.90;;;;;;4927056;28;20985;-83
2023/08/16 07:56:51;;;;;;;8.60;6.60;;;23.70;99.90;;;;;;4929403;28;20540;-83
2023/08/16 07:59:18;;;;;;;7.73;6.93;;;23.80;99.90;;;;;;4926895;28;20516;-83
2023/08/16 08:01:46;;;;;;;8.53;6.97;;;23.70;99.90;;;;;;4926176;28;20468;-83
2023/08/16 08:04:13;;;;;;;11.90;6.27;;;23.70;99.90;;;;;;4927221;28;20932;-84
2023/08/16 08:06:40;;;;;;;6.90;6.30;;;23.70;99.90;;;;;;4927245;28;20467;-83
2023/08/16 08:09:07;;;;;;;9.00;8.17;;;23.70;99.90;;;;;;4924828;28;20471;-82
2023/08/16 08:11:33;;;;;;;9.10;7.60;;;23.60;99.90;;;;;;4927500;28;20463;-81
2023/08/16 08:14:00;;;;;;;5.57;5.00;;;23.70;99.90;;;;;;4928418;28;20466;-82
2023/08/16 08:16:27;;;;;;;11.77;7.80;;;23.70;99.90;;;;;;4920547;28;20495;-84
2023/08/16 08:18:55;;;;;;;8.53;7.33;;;23.60;99.90;;;;;;4927144;28;20466;-81
2023/08/16 08:21:22;;;;;;;7.90;6.60;;;23.60;99.90;;;;;;4926004;28;20460;-78
2023/08/16 08:23:49;;;;;;;7.27;6.53;;;23.60;99.90;;;;;;4927028;28;20472;-78
2023/08/16 08:26:16;;;;;;;6.60;6.10;;;23.50;99.90;;;;;;4922983;28;20463;-77
2023/08/16 08:28:44;;;;;;;8.20;6.40;;;23.60;99.90;;;;;;4927758;28;20501;-77
2023/08/16 08:31:11;;;;;;;7.70;7.03;;;23.50;99.90;;;;;;4927341;28;20484;-77
2023/08/16 08:33:39;;;;;;;7.63;6.30;;;23.50;99.90;;;;;;4928483;28;20461;-77
2023/08/16 08:36:07;;;;;;;7.47;6.20;;;23.50;99.90;;;;;;4927914;28;20486;-78
2023/08/16 08:38:35;;;;;;;7.67;6.87;;;23.40;99.90;;;;;;4926899;28;20992;-78
2023/08/16 08:41:01;;;;;;;8.00;7.07;;;23.40;99.90;;;;;;4928403;28;20490;-78
2023/08/16 08:43:33;;;;;;;5.93;5.43;;;23.40;99.90;;;;;;4927238;28;21022;-77
2023/08/16 08:46:00;;;;;;;7.00;5.93;;;23.40;99.90;;;;;;4928608;28;20465;-77
2023/08/16 08:48:28;;;;;;;6.80;5.43;;;23.30;99.90;;;;;;4926261;28;21002;-77
2023/08/16 08:50:56;;;;;;;6.17;5.20;;;23.30;99.90;;;;;;4931101;28;20477;-78
2023/08/16 08:53:25;;;;;;;5.57;4.93;;;23.30;99.90;;;;;;4930178;28;20469;-77
2023/08/16 08:55:53;;;;;;;6.13;5.00;;;23.30;99.90;;;;;;4925419;28;20455;-78
2023/08/16 08:58:20;;;;;;;7.97;4.83;;;23.30;99.90;;;;;;4927660;28;20465;-77
2023/08/16 09:00:48;;;;;;;5.03;4.63;;;23.30;99.90;;;;;;4928893;28;20496;-78
2023/08/16 09:03:19;;;;;;;6.67;5.27;;;23.30;99.90;;;;;;4927399;28;20563;-78
2023/08/16 09:05:46;;;;;;;8.83;5.50;;;23.30;99.90;;;;;;4929104;29;20458;-77
2023/08/16 09:08:16;;;;;;;5.87;5.30;;;23.30;99.90;;;;;;4923667;28;20983;-81
2023/08/16 09:10:44;;;;;;;4.30;3.83;;;23.30;99.90;;;;;;4926482;28;20610;-79
2023/08/16 09:13:13;;;;;;;6.60;3.83;;;23.30;99.90;;;;;;4923369;28;21172;-83
2023/08/16 09:15:40;;;;;;;9.30;4.87;;;23.20;99.90;;;;;;4925516;28;20463;-81
2023/08/16 09:18:09;;;;;;;4.37;3.60;;;23.30;99.90;;;;;;4921157;28;20494;-82
2023/08/16 09:20:36;;;;;;;3.83;3.37;;;23.20;99.90;;;;;;4926319;28;20516;-81
2023/08/16 09:23:04;;;;;;;5.10;3.33;;;23.30;99.90;;;;;;4928265;28;20521;-82
2023/08/16 09:25:31;;;;;;;3.83;3.03;;;23.30;99.90;;;;;;4927372;29;20465;-83
2023/08/16 09:28:01;;;;;;;5.90;3.40;;;23.30;99.90;;;;;;4925776;29;20466;-83
2023/08/16 09:30:28;;;;;;;5.63;3.30;;;23.30;99.90;;;;;;4924631;28;20554;-82
2023/08/16 09:32:55;;;;;;;6.80;3.17;;;23.30;99.90;;;;;;4927836;28;20960;-84
2023/08/16 09:35:27;;;;;;;4.93;3.40;;;23.30;99.90;;;;;;4928520;28;20470;-81
2023/08/16 09:37:56;;;;;;;5.80;3.40;;;23.40;99.90;;;;;;4929629;28;20523;-81
2023/08/16 09:40:23;;;;;;;5.10;3.63;;;23.40;99.90;;;;;;4922359;28;20463;-81
2023/08/16 09:42:50;;;;;;;7.20;4.40;;;23.40;99.90;;;;;;4921154;28;20521;-82
2023/08/16 09:45:27;;;;;;;5.00;3.83;;;23.40;99.90;;;;;;4918608;28;20553;-86
2023/08/16 09:47:54;;;;;;;6.40;5.07;;;23.40;99.90;;;;;;4925354;28;20564;-85
2023/08/16 09:50:22;;;;;;;6.30;5.23;;;23.40;99.90;;;;;;4922372;28;20475;-84
2023/08/16 09:52:49;;;;;;;7.93;5.00;;;23.50;99.90;;;;;;4920892;28;20456;-84
2023/08/16 09:55:24;;;;;;;8.13;4.20;;;23.40;99.90;;;;;;4924304;28;21001;-84
2023/08/16 09:57:52;;;;;;;7.43;4.40;;;23.40;99.90;;;;;;4920113;28;20513;-84
2023/08/16 10:00:22;;;;;;;6.73;4.03;;;23.40;99.90;;;;;;4919281;28;20545;-85
2023/08/16 10:02:49;;;;;;;9.63;4.30;;;23.40;99.90;;;;;;4921653;28;20467;-82
2023/08/16 10:05:17;;;;;;;7.60;4.17;;;23.40;99.90;;;;;;4919534;28;20457;-83
2023/08/16 10:07:47;;;;;;;4.00;3.60;;;23.50;99.90;;;;;;4919654;28;20982;-83
2023/08/16 10:10:15;;;;;;;4.67;3.73;;;23.50;99.90;;;;;;4921235;28;20464;-84
2023/08/16 10:12:42;;;;;;;6.67;3.53;;;23.50;99.90;;;;;;4919160;28;20575;-83
2023/08/16 10:15:09;;;;;;;5.37;2.60;;;23.50;99.90;;;;;;4918759;28;20457;-82
2023/08/16 10:17:40;;;;;;;3.60;2.90;;;23.50;99.90;;;;;;4919024;28;20488;-80
2023/08/16 10:20:18;;;;;;;7.23;2.80;;;23.60;99.90;;;;;;4913364;28;20471;-84
2023/08/16 10:22:50;;;;;;;4.10;2.70;;;23.60;99.90;;;;;;4914906;28;20475;-82
2023/08/16 10:25:23;;;;;;;5.13;3.70;;;23.60;99.90;;;;;;4912727;28;20827;-81
2023/08/16 10:27:51;;;;;;;4.97;2.80;;;23.70;99.90;;;;;;4910964;28;20470;-81
2023/08/16 10:30:21;;;;;;;2.53;2.33;;;23.70;99.90;;;;;;4910954;28;20469;-81
2023/08/16 10:32:55;;;;;;;2.97;2.60;;;23.70;99.90;;;;;;4917752;28;20566;-82
2023/08/16 10:35:22;;;;;;;5.30;3.00;;;23.70;99.90;;;;;;4911959;28;20472;-81
2023/08/16 10:37:49;;;;;;;4.07;2.50;;;23.70;99.90;;;;;;4918901;28;20728;-82
2023/08/16 10:40:20;;;;;;;3.63;3.07;;;23.80;99.90;;;;;;4908590;28;20852;-82
2023/08/16 10:42:54;;;;;;;4.57;2.97;;;23.80;99.90;;;;;;4912707;28;20466;-84
2023/08/16 10:45:26;;;;;;;4.83;2.93;;;23.80;99.90;;;;;;4908739;28;20465;-85
2023/08/16 10:47:54;;;;;;;5.27;3.10;;;23.90;99.90;;;;;;4913756;28;20480;-84
2023/08/16 10:50:21;;;;;;;3.93;2.73;;;23.80;99.90;;;;;;4912602;28;20475;-82
2023/08/16 10:52:49;;;;;;;3.93;2.50;;;23.90;99.90;;;;;;4913199;28;20461;-81
2023/08/16 10:55:24;;;;;;;6.23;3.30;;;23.90;99.90;;;;;;4911810;28;20466;-84
2023/08/16 10:57:52;;;;;;;3.10;2.60;;;23.90;99.90;;;;;;4911473;28;21133;-84
2023/08/16 11:00:20;;;;;;;3.40;3.10;;;23.90;99.90;;;;;;4916145;28;21024;-81
2023/08/16 11:02:49;;;;;;;3.63;2.93;;;23.90;99.90;;;;;;4916745;28;21253;-86
2023/08/16 11:05:19;;;;;;;6.57;3.03;;;24.00;99.90;;;;;;4914008;28;20658;-86
2023/08/16 11:07:46;;;;;;;4.70;2.60;;;24.00;99.90;;;;;;4914801;28;21045;-83
2023/08/16 11:10:13;;;;;;;3.97;2.73;;;24.00;99.90;;;;;;4914579;28;20465;-84
2023/08/16 11:12:40;;;;;;;3.60;2.40;;;24.10;99.90;;;;;;4914972;28;20475;-84
2023/08/16 11:15:09;;;;;;;3.73;2.50;;;24.00;99.90;;;;;;4914335;28;20548;-84
2023/08/16 11:17:42;;;;;;;3.20;2.90;;;24.10;99.90;;;;;;4912607;28;20585;-84
2023/08/16 11:20:15;;;;;;;4.07;2.60;;;24.10;99.90;;;;;;4912612;28;20816;-85
2023/08/16 11:22:43;;;;;;;3.30;3.00;;;24.10;99.90;;;;;;4915934;28;20975;-85
2023/08/16 11:25:10;;;;;;;4.57;2.60;;;24.10;99.90;;;;;;4919905;28;20465;-85
2023/08/16 11:27:37;;;;;;;3.80;2.47;;;24.10;99.90;;;;;;4914081;28;20466;-85
2023/08/16 11:30:05;;;;;;;2.77;2.57;;;24.20;99.90;;;;;;4916212;28;20474;-83
2023/08/16 11:32:35;;;;;;;2.80;2.40;;;24.20;99.90;;;;;;4914833;28;21001;-82
2023/08/16 11:35:05;;;;;;;4.77;2.53;;;24.20;99.90;;;;;;4917715;28;20470;-82
2023/08/16 11:37:32;;;;;;;3.70;2.70;;;24.20;99.90;;;;;;4910883;28;20493;-83
2023/08/16 11:40:00;;;;;;;4.20;2.50;;;24.20;99.90;;;;;;4914123;28;20481;-85
2023/08/16 11:42:28;;;;;;;5.07;3.20;;;24.30;99.90;;;;;;4914934;28;20466;-83
2023/08/16 11:44:55;;;;;;;3.43;2.50;;;24.30;99.90;;;;;;4915735;28;20988;-85
2023/08/16 11:47:23;;;;;;;3.73;2.70;;;24.30;99.90;;;;;;4913763;28;20509;-85
2023/08/16 11:49:50;;;;;;;2.50;2.30;;;24.30;99.90;;;;;;4918233;28;20478;-83
2023/08/16 11:52:22;;;;;;;3.70;3.13;;;24.30;99.90;;;;;;4914525;28;20838;-84
2023/08/16 11:55:00;;;;;;;3.53;2.50;;;24.40;99.90;;;;;;4913849;28;20569;-84
2023/08/16 11:57:27;;;;;;;3.73;2.77;;;24.30;99.90;;;;;;4911135;28;21043;-84
2023/08/16 11:59:56;;;;;;;3.10;2.80;;;24.40;99.90;;;;;;4916380;28;20463;-83
2023/08/16 12:02:24;;;;;;;3.57;2.83;;;24.40;99.90;;;;;;4917997;28;21081;-89
2023/08/16 12:04:51;;;;;;;5.33;2.57;;;24.40;99.90;;;;;;4919643;28;20886;-85
2023/08/16 12:07:18;;;;;;;4.63;2.80;;;24.50;99.90;;;;;;4917367;28;21079;-87
2023/08/16 12:09:48;;;;;;;2.63;2.40;;;24.50;99.90;;;;;;4915787;28;20597;-85
2023/08/16 12:12:16;;;;;;;5.63;2.77;;;24.50;99.90;;;;;;4919361;28;20843;-85
2023/08/16 12:14:42;;;;;;;5.70;3.93;;;24.50;99.90;;;;;;4915682;28;20466;-86
2023/08/16 12:17:10;;;;;;;4.70;2.80;;;24.50;99.90;;;;;;4924116;28;20482;-83
2023/08/16 12:19:37;;;;;;;5.20;3.10;;;24.50;99.90;;;;;;4935076;28;20472;-87
2023/08/16 12:22:04;;;;;;;5.20;3.13;;;24.50;99.90;;;;;;4933078;28;20477;-86
2023/08/16 12:24:31;;;;;;;4.17;2.90;;;24.50;99.90;;;;;;4934794;28;20522;-85
2023/08/16 12:26:58;;;;;;;4.90;3.13;;;24.50;99.90;;;;;;4934066;28;20461;-81
2023/08/16 12:29:26;;;;;;;4.20;2.90;;;24.50;99.90;;;;;;4931528;28;20480;-82
2023/08/16 12:31:53;;;;;;;4.67;2.90;;;24.60;99.90;;;;;;4935371;28;23544;-84
2023/08/16 12:34:19;;;;;;;3.00;2.40;;;24.50;99.90;;;;;;4939209;28;21109;-84
2023/08/16 12:37:14;;;;;;;5.77;3.13;;;24.50;99.90;;;;;;4937412;28;20465;-90
2023/08/16 12:39:41;;;;;;;5.33;3.10;;;24.50;99.90;;;;;;4932946;28;20470;-82
2023/08/16 12:42:07;;;;;;;3.63;2.20;;;24.60;99.90;;;;;;4925821;28;21139;-82
2023/08/16 12:44:36;;;;;;;2.90;2.40;;;24.60;99.90;;;;;;4920355;28;20467;-82
2023/08/16 12:47:02;;;;;;;4.63;2.90;;;24.60;99.90;;;;;;4931027;28;20463;-84
2023/08/16 12:49:29;;;;;;;4.77;2.20;;;24.60;99.90;;;;;;4924035;28;20535;-81
2023/08/16 12:51:56;;;;;;;4.07;2.43;;;24.60;99.90;;;;;;4919792;28;23015;-80